sim
Sign-in with your pilot id or email,
or register
Callsign
Passwort

Schedule Details

Flight Number: DLH2095 (1)
Departure: Hannover Langenhagen Airport (EDDV) at 12:30
Arrival: Munich Airport (EDDM) at 13:40
Route: Lufthansa Passenger Schedule. Enter filed route here before submitting Pirep.

Weather Information
Getting current METAR information for EDDV 010350Z 09005KT 7000 NSC 08/08 Q1008 TEMPO 4500 BR
Getting current METAR information for EDDM 010350Z 07001KT 0700 R08L/0800N R08R/0500N FG FEW001 03/03 Q1010 BECMG 0500 BKN001

Schedule Frequency

Route Map